This is the latest recevied weather packets stored in our database for station/object DC4THF-13. If no packets are shown the sender has not sent any weather packets the latest 10 day(s).
| Time | Temp. | Humidity | Pressure | Rain* | Wind** | Luminosity | Snow |
|---|---|---|---|---|---|---|---|
| 1787733784 | 21.67° C | 56% | 1015.2 hPa | 0 mm | - | - | - |
| 1787733181 | 19.44° C | 60% | 1015.1 hPa | 0 mm | - | - | - |
| 1787732578 | 19.44° C | 60% | 1015.1 hPa | 0 mm | - | - | - |
| 1787731975 | 18.89° C | 60% | 1015 hPa | 0 mm | - | - | - |
| 1787731372 | 18.89° C | 60% | 1015 hPa | 0 mm | - | - | - |
| 1787730769 | 18.89° C | 61% | 1015 hPa | 0 mm | - | - | - |
| 1787730166 | 18.33° C | 62% | 1014.8 hPa | 0 mm | - | - | - |
| 1787729563 | 18.33° C | 61% | 1014.8 hPa | 0 mm | - | - | - |
| 1787728960 | 20° C | 58% | 1014.8 hPa | 0 mm | - | - | - |
| 1787728357 | 20° C | 61% | 1014.9 hPa | 0 mm | - | - | - |
| 1787727754 | 18.33° C | 64% | 1014.7 hPa | 0 mm | - | - | - |
| 1787727151 | 16.67° C | 72% | 1014.7 hPa | 0 mm | - | - | - |
| 1787726548 | 16.11° C | 73% | 1014.6 hPa | 0 mm | - | - | - |
| 1787725945 | 15.56° C | 74% | 1014.6 hPa | 0 mm | - | - | - |
| 1787725343 | 15° C | 74% | 1014.7 hPa | 0 mm | - | - | - |
| 1787724739 | 15° C | 75% | 1014.6 hPa | 0 mm | - | - | - |
| 1787724136 | 14.44° C | 75% | 1014.6 hPa | 0 mm | - | - | - |
| 1787723592 | 14.44° C | 76% | 1014.5 hPa | 0 mm | - | - | - |
| 1787722988 | 14.44° C | 76% | 1014.5 hPa | 0 mm | - | - | - |
| 1787722384 | 13.89° C | 77% | 1014.4 hPa | 0 mm | - | - | - |
| 1787721780 | 13.89° C | 78% | 1014.3 hPa | 0 mm | - | - | - |
| 1787721177 | 13.89° C | 79% | 1014.3 hPa | 0 mm | - | - | - |
| 1787720574 | 13.33° C | 80% | 1014.4 hPa | 0 mm | - | - | - |
| 1787719971 | 13.33° C | 80% | 1014.4 hPa | 0 mm | - | - | - |
| 1787719368 | 13.33° C | 80% | 1014.5 hPa | 0 mm | - | - | - |
* Rain latest hour (hover to see other rain measurements)
** Current wind speed in m/s (hover to see current wind gust speed)